EZY12NL EGPF-EGHI
Flight info
| Callsign | EZY12NL |
|---|---|
| Flight time | 1h 14m |
| Altitude | 35000 |
| Route | NORBO T256 DCS DCT ADZOP DCT EGTOC DCT KEPAD L151 PEPUL Y322 BUGUP |
| Aircraft | A319/M-SDE2E3FGIJ1RWXYZ/LB1 |
Departure
| Time | 2026-04-29 08:46 |
|---|---|
| Airport | Glasgow Airport (EGPF) |
Arrival
| Time | 2026-04-29 10:01 |
|---|---|
| Airport | Southampton Airport (EGHI) |
| Time | Latitude | Longitude | Altitude | Speed | Heading |
|---|---|---|---|---|---|
| 2026-04-29 08:17 | 55.86715 | -4.43426 | 29 ft | 0 kts | 178° |
| 2026-04-29 08:38 | 55.86729 | -4.43427 | 29 ft | 3 kts | 179° |
| 2026-04-29 08:38 | 55.86748 | -4.43427 | 29 ft | 2 kts | 179° |
| 2026-04-29 08:38 | 55.86767 | -4.43426 | 29 ft | 3 kts | 201° |
| 2026-04-29 08:39 | 55.86782 | -4.43409 | 30 ft | 3 kts | 237° |
| 2026-04-29 08:39 | 55.86788 | -4.43387 | 30 ft | 1 kts | 254° |
| 2026-04-29 08:41 | 55.86779 | -4.43441 | 30 ft | 8 kts | 252° |
| 2026-04-29 08:42 | 55.86762 | -4.43544 | 30 ft | 9 kts | 253° |
| 2026-04-29 08:42 | 55.86739 | -4.43681 | 29 ft | 13 kts | 253° |
| 2026-04-29 08:42 | 55.86688 | -4.43833 | 27 ft | 15 kts | 227° |
| 2026-04-29 08:42 | 55.86617 | -4.43966 | 29 ft | 14 kts | 226° |
| 2026-04-29 08:43 | 55.86546 | -4.44099 | 31 ft | 14 kts | 226° |
| 2026-04-29 08:43 | 55.86482 | -4.44220 | 33 ft | 13 kts | 226° |
| 2026-04-29 08:43 | 55.86412 | -4.44348 | 32 ft | 15 kts | 226° |
| 2026-04-29 08:43 | 55.86341 | -4.44480 | 31 ft | 14 kts | 226° |
| 2026-04-29 08:44 | 55.86287 | -4.44578 | 29 ft | 10 kts | 226° |
| 2026-04-29 08:44 | 55.86256 | -4.44686 | 30 ft | 10 kts | 275° |
| 2026-04-29 08:44 | 55.86296 | -4.44784 | 31 ft | 9 kts | 314° |
| 2026-04-29 08:44 | 55.86340 | -4.44848 | 33 ft | 8 kts | 337° |
| 2026-04-29 08:45 | 55.86392 | -4.44815 | 32 ft | 10 kts | 40° |
| 2026-04-29 08:45 | 55.86396 | -4.44809 | 32 ft | 0 kts | 42° |
| 2026-04-29 08:45 | 55.86400 | -4.44802 | 32 ft | 7 kts | 43° |
| 2026-04-29 08:45 | 55.86630 | -4.44382 | 37 ft | 87 kts | 46° |
| 2026-04-29 08:46 | 55.87219 | -4.43285 | 32 ft | 152 kts | 47° |
| 2026-04-29 08:46 | 55.87966 | -4.41867 | 593 ft | 160 kts | 47° |
| 2026-04-29 08:46 | 55.88731 | -4.40392 | 1372 ft | 164 kts | 48° |
| 2026-04-29 08:46 | 55.89555 | -4.38848 | 1851 ft | 183 kts | 49° |
| 2026-04-29 08:47 | 55.90492 | -4.37103 | 2255 ft | 205 kts | 49° |
| 2026-04-29 08:47 | 55.91536 | -4.35164 | 2707 ft | 228 kts | 49° |
| 2026-04-29 08:47 | 55.92698 | -4.33065 | 3294 ft | 250 kts | 43° |
| 2026-04-29 08:47 | 55.94304 | -4.31717 | 4180 ft | 265 kts | 11° |
| 2026-04-29 08:48 | 55.96153 | -4.32050 | 5159 ft | 275 kts | 340° |
| 2026-04-29 08:48 | 55.97699 | -4.34107 | 6106 ft | 284 kts | 307° |
| 2026-04-29 08:48 | 55.98421 | -4.37392 | 7005 ft | 290 kts | 273° |
| 2026-04-29 08:48 | 55.98067 | -4.40920 | 7882 ft | 292 kts | 245° |
| 2026-04-29 08:49 | 55.97235 | -4.44257 | 8784 ft | 295 kts | 242° |
| 2026-04-29 08:49 | 55.96343 | -4.47542 | 9672 ft | 299 kts | 241° |
| 2026-04-29 08:49 | 55.95296 | -4.50781 | 10510 ft | 302 kts | 227° |
| 2026-04-29 08:49 | 55.93809 | -4.53551 | 10933 ft | 320 kts | 221° |
| 2026-04-29 08:50 | 55.92732 | -4.55453 | 11181 ft | 333 kts | 221° |
| 2026-04-29 08:50 | 55.91062 | -4.58406 | 11847 ft | 341 kts | 221° |
| 2026-04-29 08:50 | 55.88811 | -4.62422 | 12857 ft | 348 kts | 221° |
| 2026-04-29 08:50 | 55.87654 | -4.64502 | 13372 ft | 352 kts | 221° |
| 2026-04-29 08:51 | 55.85885 | -4.67452 | 14107 ft | 353 kts | 212° |
| 2026-04-29 08:51 | 55.83831 | -4.69899 | 14786 ft | 356 kts | 208° |
| 2026-04-29 08:51 | 55.81722 | -4.72262 | 15459 ft | 358 kts | 205° |
| 2026-04-29 08:51 | 55.79446 | -4.74043 | 16111 ft | 356 kts | 192° |
| 2026-04-29 08:52 | 55.77059 | -4.74959 | 16779 ft | 354 kts | 181° |
| 2026-04-29 08:52 | 55.74587 | -4.75185 | 17459 ft | 355 kts | 176° |
| 2026-04-29 08:52 | 55.72101 | -4.75335 | 18152 ft | 358 kts | 177° |
| 2026-04-29 08:52 | 55.69617 | -4.75500 | 18809 ft | 362 kts | 177° |
| 2026-04-29 08:53 | 55.67080 | -4.75676 | 19377 ft | 366 kts | 177° |
| 2026-04-29 08:53 | 55.64514 | -4.75855 | 19944 ft | 370 kts | 177° |
| 2026-04-29 08:53 | 55.61949 | -4.75637 | 20510 ft | 368 kts | 166° |
| 2026-04-29 08:53 | 55.59468 | -4.74519 | 21080 ft | 365 kts | 155° |
| 2026-04-29 08:54 | 55.57190 | -4.72552 | 21641 ft | 364 kts | 144° |
| 2026-04-29 08:54 | 55.55168 | -4.69870 | 22197 ft | 364 kts | 137° |
| 2026-04-29 08:54 | 55.53215 | -4.67045 | 22749 ft | 368 kts | 137° |
| 2026-04-29 08:54 | 55.51216 | -4.64173 | 23306 ft | 372 kts | 137° |
| 2026-04-29 08:55 | 55.49191 | -4.61276 | 23841 ft | 375 kts | 137° |
| 2026-04-29 08:55 | 55.47151 | -4.58366 | 24327 ft | 379 kts | 138° |
| 2026-04-29 08:55 | 55.45085 | -4.55425 | 24773 ft | 383 kts | 138° |
| 2026-04-29 08:55 | 55.43025 | -4.52502 | 25231 ft | 385 kts | 137° |
| 2026-04-29 08:56 | 55.40927 | -4.49531 | 25684 ft | 388 kts | 138° |
| 2026-04-29 08:56 | 55.38813 | -4.46538 | 26117 ft | 391 kts | 137° |
| 2026-04-29 08:56 | 55.36684 | -4.43518 | 26541 ft | 394 kts | 137° |
| 2026-04-29 08:56 | 55.34541 | -4.40476 | 26948 ft | 397 kts | 137° |
| 2026-04-29 08:57 | 55.32377 | -4.37413 | 27343 ft | 400 kts | 137° |
| 2026-04-29 08:57 | 55.30223 | -4.34376 | 27740 ft | 403 kts | 138° |
| 2026-04-29 08:57 | 55.27998 | -4.31245 | 28142 ft | 406 kts | 138° |
| 2026-04-29 08:57 | 55.25809 | -4.28170 | 28546 ft | 409 kts | 138° |
| 2026-04-29 08:58 | 55.23579 | -4.25042 | 28941 ft | 412 kts | 138° |
| 2026-04-29 08:58 | 55.21326 | -4.21884 | 29330 ft | 415 kts | 138° |
| 2026-04-29 08:58 | 55.19059 | -4.18710 | 29735 ft | 418 kts | 137° |
| 2026-04-29 08:58 | 55.16890 | -4.15315 | 30144 ft | 416 kts | 130° |
| 2026-04-29 08:59 | 55.14892 | -4.11624 | 30545 ft | 419 kts | 130° |
| 2026-04-29 08:59 | 55.12908 | -4.07960 | 30859 ft | 421 kts | 130° |
| 2026-04-29 08:59 | 55.10890 | -4.04236 | 31186 ft | 423 kts | 130° |
| 2026-04-29 08:59 | 55.08860 | -4.00495 | 31505 ft | 425 kts | 130° |
| 2026-04-29 09:00 | 55.06815 | -3.96744 | 31823 ft | 426 kts | 130° |
| 2026-04-29 09:00 | 55.04757 | -3.92977 | 32156 ft | 428 kts | 130° |
| 2026-04-29 09:00 | 55.02728 | -3.89264 | 32600 ft | 426 kts | 130° |
| 2026-04-29 09:00 | 55.00679 | -3.85519 | 33053 ft | 425 kts | 130° |
| 2026-04-29 09:01 | 54.98643 | -3.81807 | 33499 ft | 423 kts | 130° |
| 2026-04-29 09:01 | 54.96607 | -3.78102 | 33909 ft | 423 kts | 130° |
| 2026-04-29 09:01 | 54.94576 | -3.74412 | 34350 ft | 422 kts | 130° |
| 2026-04-29 09:01 | 54.92571 | -3.70773 | 34828 ft | 418 kts | 130° |
| 2026-04-29 09:02 | 54.90565 | -3.67133 | 35253 ft | 416 kts | 130° |
| 2026-04-29 09:02 | 54.88549 | -3.63481 | 35440 ft | 416 kts | 130° |
| 2026-04-29 09:02 | 54.86558 | -3.59879 | 35487 ft | 409 kts | 130° |
| 2026-04-29 09:03 | 54.82672 | -3.52868 | 35488 ft | 403 kts | 130° |
| 2026-04-29 09:03 | 54.78772 | -3.45854 | 35485 ft | 402 kts | 130° |
| 2026-04-29 09:04 | 54.74840 | -3.39024 | 35485 ft | 405 kts | 137° |
| 2026-04-29 09:04 | 54.69861 | -3.34275 | 35487 ft | 416 kts | 158° |
| 2026-04-29 09:04 | 54.67014 | -3.33228 | 35487 ft | 423 kts | 169° |
| 2026-04-29 09:05 | 54.64069 | -3.32773 | 35490 ft | 423 kts | 170° |
| 2026-04-29 09:05 | 54.58236 | -3.31870 | 35479 ft | 423 kts | 169° |
| 2026-04-29 09:06 | 54.52371 | -3.30936 | 35472 ft | 422 kts | 169° |
| 2026-04-29 09:06 | 54.46544 | -3.30010 | 35464 ft | 422 kts | 169° |
| 2026-04-29 09:07 | 54.40683 | -3.29083 | 35478 ft | 422 kts | 169° |
| 2026-04-29 09:07 | 54.34831 | -3.28163 | 35475 ft | 421 kts | 169° |
| 2026-04-29 09:08 | 54.29015 | -3.27257 | 35466 ft | 421 kts | 169° |
| 2026-04-29 09:08 | 54.23170 | -3.26343 | 35465 ft | 421 kts | 169° |
| 2026-04-29 09:09 | 54.17319 | -3.25434 | 35487 ft | 421 kts | 168° |
| 2026-04-29 09:09 | 54.11466 | -3.24521 | 35479 ft | 421 kts | 168° |
| 2026-04-29 09:10 | 54.05654 | -3.23605 | 35466 ft | 421 kts | 168° |
| 2026-04-29 09:10 | 53.99864 | -3.22372 | 35454 ft | 414 kts | 159° |
| 2026-04-29 09:11 | 53.94525 | -3.19163 | 35460 ft | 407 kts | 152° |
| 2026-04-29 09:11 | 53.89220 | -3.15728 | 35451 ft | 407 kts | 153° |
| 2026-04-29 09:12 | 53.83960 | -3.12353 | 35448 ft | 406 kts | 153° |
| 2026-04-29 09:12 | 53.78668 | -3.08969 | 35442 ft | 406 kts | 153° |
| 2026-04-29 09:13 | 53.73371 | -3.05583 | 35438 ft | 406 kts | 153° |
| 2026-04-29 09:13 | 53.68097 | -3.02209 | 35463 ft | 405 kts | 152° |
| 2026-04-29 09:14 | 53.62815 | -2.98846 | 35433 ft | 404 kts | 152° |
| 2026-04-29 09:14 | 53.57574 | -2.95515 | 35428 ft | 403 kts | 152° |
| 2026-04-29 09:15 | 53.52310 | -2.92183 | 35423 ft | 403 kts | 153° |
| 2026-04-29 09:15 | 53.47076 | -2.88887 | 35422 ft | 403 kts | 153° |
| 2026-04-29 09:16 | 53.41822 | -2.85583 | 35413 ft | 402 kts | 153° |
| 2026-04-29 09:16 | 53.36569 | -2.82286 | 35410 ft | 402 kts | 153° |
| 2026-04-29 09:17 | 53.31351 | -2.79017 | 35417 ft | 402 kts | 153° |
| 2026-04-29 09:17 | 53.26094 | -2.75732 | 35412 ft | 402 kts | 153° |
| 2026-04-29 09:18 | 53.20836 | -2.72452 | 35429 ft | 402 kts | 152° |
| 2026-04-29 09:18 | 53.15614 | -2.69206 | 35427 ft | 402 kts | 152° |
| 2026-04-29 09:19 | 53.10365 | -2.65950 | 35420 ft | 401 kts | 153° |
| 2026-04-29 09:19 | 53.05157 | -2.62737 | 35409 ft | 401 kts | 153° |
| 2026-04-29 09:20 | 52.99912 | -2.59510 | 35396 ft | 401 kts | 153° |
| 2026-04-29 09:20 | 52.94701 | -2.56305 | 35423 ft | 400 kts | 152° |
| 2026-04-29 09:21 | 52.89477 | -2.53095 | 35415 ft | 399 kts | 152° |
| 2026-04-29 09:21 | 52.84278 | -2.49915 | 35389 ft | 402 kts | 152° |
| 2026-04-29 09:22 | 52.79265 | -2.46043 | 34965 ft | 387 kts | 139° |
| 2026-04-29 09:22 | 52.77039 | -2.43563 | 34560 ft | 382 kts | 139° |
| 2026-04-29 09:22 | 52.74845 | -2.41127 | 34118 ft | 377 kts | 139° |
| 2026-04-29 09:22 | 52.72702 | -2.38758 | 33682 ft | 373 kts | 139° |
| 2026-04-29 09:23 | 52.70554 | -2.36390 | 33215 ft | 369 kts | 139° |
| 2026-04-29 09:23 | 52.68422 | -2.34047 | 32733 ft | 365 kts | 139° |
| 2026-04-29 09:23 | 52.66303 | -2.31723 | 32233 ft | 363 kts | 139° |
| 2026-04-29 09:23 | 52.64209 | -2.29427 | 31759 ft | 360 kts | 139° |
| 2026-04-29 09:24 | 52.62153 | -2.27173 | 31296 ft | 358 kts | 139° |
| 2026-04-29 09:24 | 52.60084 | -2.24908 | 30827 ft | 355 kts | 139° |
| 2026-04-29 09:24 | 52.58029 | -2.22656 | 30395 ft | 353 kts | 139° |
| 2026-04-29 09:24 | 52.55990 | -2.20422 | 29893 ft | 351 kts | 139° |
| 2026-04-29 09:25 | 52.53966 | -2.18207 | 29406 ft | 348 kts | 140° |
| 2026-04-29 09:25 | 52.51976 | -2.16035 | 28931 ft | 346 kts | 140° |
| 2026-04-29 09:25 | 52.49968 | -2.13848 | 28538 ft | 344 kts | 139° |
| 2026-04-29 09:25 | 52.47986 | -2.11694 | 28152 ft | 340 kts | 140° |
| 2026-04-29 09:26 | 52.46020 | -2.09564 | 27735 ft | 337 kts | 140° |
| 2026-04-29 09:26 | 52.44061 | -2.07443 | 27284 ft | 336 kts | 140° |
| 2026-04-29 09:26 | 52.42117 | -2.05341 | 26848 ft | 334 kts | 140° |
| 2026-04-29 09:26 | 52.40204 | -2.03265 | 26404 ft | 332 kts | 140° |
| 2026-04-29 09:27 | 52.38279 | -2.01170 | 25955 ft | 331 kts | 140° |
| 2026-04-29 09:27 | 52.36364 | -1.99093 | 25511 ft | 329 kts | 140° |
| 2026-04-29 09:27 | 52.34455 | -1.97028 | 25083 ft | 327 kts | 141° |
| 2026-04-29 09:27 | 52.32553 | -1.94974 | 24635 ft | 326 kts | 141° |
| 2026-04-29 09:28 | 52.30662 | -1.92939 | 24216 ft | 324 kts | 141° |
| 2026-04-29 09:28 | 52.28805 | -1.90944 | 23785 ft | 323 kts | 141° |
| 2026-04-29 09:28 | 52.26921 | -1.88966 | 23287 ft | 323 kts | 145° |
| 2026-04-29 09:28 | 52.24864 | -1.87406 | 22830 ft | 325 kts | 150° |
| 2026-04-29 09:29 | 52.22790 | -1.85959 | 22345 ft | 323 kts | 150° |
| 2026-04-29 09:29 | 52.18656 | -1.83098 | 21400 ft | 320 kts | 150° |
| 2026-04-29 09:29 | 52.16633 | -1.81696 | 20959 ft | 319 kts | 150° |
| 2026-04-29 09:30 | 52.14587 | -1.80275 | 20512 ft | 318 kts | 150° |
| 2026-04-29 09:30 | 52.12552 | -1.78858 | 20068 ft | 317 kts | 150° |
| 2026-04-29 09:30 | 52.10524 | -1.77438 | 19630 ft | 316 kts | 150° |
| 2026-04-29 09:30 | 52.08498 | -1.76028 | 19197 ft | 315 kts | 150° |
| 2026-04-29 09:31 | 52.06504 | -1.74638 | 18774 ft | 315 kts | 150° |
| 2026-04-29 09:31 | 52.04493 | -1.73239 | 18302 ft | 314 kts | 150° |
| 2026-04-29 09:31 | 52.02480 | -1.71845 | 17802 ft | 314 kts | 151° |
| 2026-04-29 09:31 | 52.00465 | -1.70454 | 17322 ft | 314 kts | 151° |
| 2026-04-29 09:32 | 51.98447 | -1.69064 | 16842 ft | 314 kts | 151° |
| 2026-04-29 09:32 | 51.96459 | -1.67696 | 16384 ft | 314 kts | 151° |
| 2026-04-29 09:32 | 51.94448 | -1.66309 | 15926 ft | 314 kts | 152° |
| 2026-04-29 09:32 | 51.92432 | -1.64919 | 15475 ft | 313 kts | 152° |
| 2026-04-29 09:33 | 51.90428 | -1.63535 | 15030 ft | 313 kts | 152° |
| 2026-04-29 09:33 | 51.88420 | -1.62151 | 14592 ft | 313 kts | 152° |
| 2026-04-29 09:33 | 51.86513 | -1.60520 | 14161 ft | 309 kts | 144° |
| 2026-04-29 09:33 | 51.84694 | -1.58760 | 13691 ft | 308 kts | 144° |
| 2026-04-29 09:34 | 51.82857 | -1.56986 | 13216 ft | 307 kts | 144° |
| 2026-04-29 09:34 | 51.81019 | -1.55217 | 12743 ft | 306 kts | 145° |
| 2026-04-29 09:34 | 51.79189 | -1.53460 | 12293 ft | 304 kts | 145° |
| 2026-04-29 09:34 | 51.77372 | -1.51721 | 11827 ft | 301 kts | 145° |
| 2026-04-29 09:35 | 51.75601 | -1.50029 | 11370 ft | 290 kts | 145° |
| 2026-04-29 09:35 | 51.73915 | -1.48420 | 10935 ft | 280 kts | 145° |
| 2026-04-29 09:35 | 51.72258 | -1.46838 | 10531 ft | 271 kts | 145° |
| 2026-04-29 09:35 | 51.70646 | -1.45298 | 10166 ft | 267 kts | 145° |
| 2026-04-29 09:36 | 51.69004 | -1.43870 | 9754 ft | 270 kts | 153° |
| 2026-04-29 09:36 | 51.67261 | -1.42821 | 9376 ft | 270 kts | 155° |
| 2026-04-29 09:36 | 51.65505 | -1.41784 | 9294 ft | 268 kts | 155° |
| 2026-04-29 09:36 | 51.64310 | -1.41092 | 9298 ft | 270 kts | 157° |
| 2026-04-29 09:37 | 51.62513 | -1.40305 | 9302 ft | 272 kts | 160° |
| 2026-04-29 09:37 | 51.60688 | -1.39603 | 9290 ft | 262 kts | 162° |
| 2026-04-29 09:37 | 51.58956 | -1.38980 | 9274 ft | 246 kts | 161° |
| 2026-04-29 09:37 | 51.57336 | -1.38401 | 9275 ft | 232 kts | 161° |
| 2026-04-29 09:38 | 51.55781 | -1.37831 | 9280 ft | 228 kts | 160° |
| 2026-04-29 09:38 | 51.54239 | -1.37254 | 9278 ft | 227 kts | 160° |
| 2026-04-29 09:38 | 51.52715 | -1.36682 | 9281 ft | 227 kts | 160° |
| 2026-04-29 09:38 | 51.51170 | -1.36102 | 9162 ft | 225 kts | 160° |
| 2026-04-29 09:39 | 51.49641 | -1.35529 | 8835 ft | 225 kts | 160° |
| 2026-04-29 09:39 | 51.48135 | -1.34962 | 8539 ft | 224 kts | 160° |
| 2026-04-29 09:39 | 51.46598 | -1.34381 | 7997 ft | 233 kts | 160° |
| 2026-04-29 09:39 | 51.44956 | -1.33753 | 7421 ft | 252 kts | 161° |
| 2026-04-29 09:40 | 51.43203 | -1.33084 | 7274 ft | 262 kts | 161° |
| 2026-04-29 09:40 | 51.41413 | -1.32412 | 7269 ft | 265 kts | 161° |
| 2026-04-29 09:40 | 51.39597 | -1.31844 | 7258 ft | 270 kts | 170° |
| 2026-04-29 09:40 | 51.37743 | -1.31825 | 7267 ft | 259 kts | 175° |
| 2026-04-29 09:41 | 51.36015 | -1.31917 | 7264 ft | 242 kts | 176° |
| 2026-04-29 09:41 | 51.34376 | -1.32034 | 7267 ft | 231 kts | 176° |
| 2026-04-29 09:41 | 51.32769 | -1.32156 | 7282 ft | 230 kts | 176° |
| 2026-04-29 09:41 | 51.31174 | -1.32282 | 7262 ft | 229 kts | 177° |
| 2026-04-29 09:42 | 51.29586 | -1.32427 | 7259 ft | 228 kts | 175° |
| 2026-04-29 09:42 | 51.28018 | -1.32606 | 7251 ft | 228 kts | 176° |
| 2026-04-29 09:42 | 51.26433 | -1.32785 | 7251 ft | 229 kts | 175° |
| 2026-04-29 09:42 | 51.24838 | -1.32921 | 7250 ft | 229 kts | 175° |
| 2026-04-29 09:43 | 51.23244 | -1.33073 | 7250 ft | 229 kts | 177° |
| 2026-04-29 09:43 | 51.21655 | -1.33228 | 7252 ft | 228 kts | 176° |
| 2026-04-29 09:43 | 51.20086 | -1.33332 | 7247 ft | 229 kts | 175° |
| 2026-04-29 09:43 | 51.18493 | -1.33445 | 7245 ft | 229 kts | 175° |
| 2026-04-29 09:44 | 51.16899 | -1.33641 | 7245 ft | 233 kts | 182° |
| 2026-04-29 09:44 | 51.15379 | -1.34698 | 7253 ft | 242 kts | 205° |
| 2026-04-29 09:44 | 51.13940 | -1.36117 | 7252 ft | 244 kts | 205° |
| 2026-04-29 09:44 | 51.12513 | -1.37585 | 7248 ft | 245 kts | 207° |
| 2026-04-29 09:45 | 51.11073 | -1.39036 | 7248 ft | 244 kts | 205° |
| 2026-04-29 09:45 | 51.09638 | -1.40492 | 7254 ft | 243 kts | 206° |
| 2026-04-29 09:45 | 51.08202 | -1.41902 | 7242 ft | 241 kts | 203° |
| 2026-04-29 09:45 | 51.06702 | -1.43028 | 7138 ft | 236 kts | 196° |
| 2026-04-29 09:46 | 51.05205 | -1.44019 | 6798 ft | 236 kts | 195° |
| 2026-04-29 09:46 | 51.03688 | -1.45035 | 6515 ft | 236 kts | 196° |
| 2026-04-29 09:46 | 51.02171 | -1.46049 | 6226 ft | 234 kts | 197° |
| 2026-04-29 09:46 | 51.00665 | -1.47035 | 5943 ft | 233 kts | 196° |
| 2026-04-29 09:47 | 50.99187 | -1.48014 | 5653 ft | 233 kts | 196° |
| 2026-04-29 09:47 | 50.97692 | -1.49004 | 5388 ft | 232 kts | 196° |
| 2026-04-29 09:47 | 50.96206 | -1.49992 | 5103 ft | 231 kts | 196° |
| 2026-04-29 09:47 | 50.94725 | -1.50998 | 4837 ft | 230 kts | 196° |
| 2026-04-29 09:48 | 50.93251 | -1.52001 | 4534 ft | 229 kts | 195° |
| 2026-04-29 09:48 | 50.91806 | -1.53001 | 4246 ft | 229 kts | 195° |
| 2026-04-29 09:48 | 50.90327 | -1.54036 | 3936 ft | 230 kts | 195° |
| 2026-04-29 09:48 | 50.88879 | -1.55074 | 3634 ft | 231 kts | 195° |
| 2026-04-29 09:49 | 50.87422 | -1.56149 | 3366 ft | 231 kts | 196° |
| 2026-04-29 09:49 | 50.85965 | -1.57232 | 3101 ft | 230 kts | 195° |
| 2026-04-29 09:49 | 50.84533 | -1.58297 | 2994 ft | 226 kts | 195° |
| 2026-04-29 09:49 | 50.83151 | -1.59347 | 3005 ft | 211 kts | 195° |
| 2026-04-29 09:50 | 50.81875 | -1.60354 | 3050 ft | 206 kts | 196° |
| 2026-04-29 09:50 | 50.80599 | -1.61377 | 3012 ft | 203 kts | 196° |
| 2026-04-29 09:50 | 50.79344 | -1.62384 | 3002 ft | 202 kts | 196° |
| 2026-04-29 09:50 | 50.78081 | -1.63398 | 3003 ft | 203 kts | 195° |
| 2026-04-29 09:51 | 50.76839 | -1.64405 | 3008 ft | 202 kts | 195° |
| 2026-04-29 09:51 | 50.75587 | -1.65435 | 3007 ft | 201 kts | 195° |
| 2026-04-29 09:51 | 50.74307 | -1.65910 | 3012 ft | 178 kts | 161° |
| 2026-04-29 09:51 | 50.73327 | -1.65101 | 3016 ft | 153 kts | 120° |
| 2026-04-29 09:52 | 50.73051 | -1.63576 | 3018 ft | 146 kts | 90° |
| 2026-04-29 09:52 | 50.73111 | -1.61982 | 3011 ft | 146 kts | 84° |
| 2026-04-29 09:52 | 50.73524 | -1.60490 | 3009 ft | 152 kts | 65° |
| 2026-04-29 09:52 | 50.74086 | -1.59078 | 3011 ft | 151 kts | 64° |
| 2026-04-29 09:53 | 50.74650 | -1.57667 | 3008 ft | 151 kts | 64° |
| 2026-04-29 09:53 | 50.75186 | -1.56334 | 3008 ft | 140 kts | 65° |
| 2026-04-29 09:53 | 50.75692 | -1.55069 | 3007 ft | 134 kts | 65° |
| 2026-04-29 09:53 | 50.76183 | -1.53830 | 3020 ft | 132 kts | 65° |
| 2026-04-29 09:54 | 50.76666 | -1.52608 | 3006 ft | 131 kts | 65° |
| 2026-04-29 09:54 | 50.77149 | -1.51383 | 3006 ft | 132 kts | 66° |
| 2026-04-29 09:54 | 50.77638 | -1.50142 | 3012 ft | 133 kts | 65° |
| 2026-04-29 09:54 | 50.78134 | -1.48895 | 3015 ft | 134 kts | 64° |
| 2026-04-29 09:55 | 50.78627 | -1.47657 | 3012 ft | 132 kts | 65° |
| 2026-04-29 09:55 | 50.79111 | -1.46440 | 3015 ft | 132 kts | 65° |
| 2026-04-29 09:55 | 50.79603 | -1.45203 | 3010 ft | 133 kts | 65° |
| 2026-04-29 09:55 | 50.80206 | -1.44067 | 3015 ft | 141 kts | 48° |
| 2026-04-29 09:56 | 50.81119 | -1.43412 | 2937 ft | 143 kts | 32° |
| 2026-04-29 09:56 | 50.82049 | -1.42905 | 2419 ft | 140 kts | 31° |
| 2026-04-29 09:56 | 50.82911 | -1.42410 | 2232 ft | 122 kts | 31° |
| 2026-04-29 09:56 | 50.83690 | -1.42032 | 2065 ft | 114 kts | 28° |
| 2026-04-29 09:57 | 50.84424 | -1.41687 | 1812 ft | 109 kts | 28° |
| 2026-04-29 09:57 | 50.85129 | -1.41343 | 1503 ft | 102 kts | 28° |
| 2026-04-29 09:57 | 50.85777 | -1.41011 | 1240 ft | 97 kts | 29° |
| 2026-04-29 09:57 | 50.86520 | -1.40690 | 1167 ft | 122 kts | 24° |
| 2026-04-29 09:58 | 50.87288 | -1.40333 | 1284 ft | 104 kts | 29° |
| 2026-04-29 09:58 | 50.87914 | -1.39988 | 1043 ft | 96 kts | 31° |
| 2026-04-29 09:58 | 50.88588 | -1.39555 | 890 ft | 119 kts | 30° |
| 2026-04-29 09:58 | 50.89339 | -1.39063 | 1264 ft | 110 kts | 31° |
| 2026-04-29 09:59 | 50.90023 | -1.38662 | 1069 ft | 106 kts | 33° |
| 2026-04-29 09:59 | 50.90723 | -1.38272 | 773 ft | 103 kts | 31° |
| 2026-04-29 09:59 | 50.91470 | -1.37730 | 684 ft | 135 kts | 25° |
| 2026-04-29 09:59 | 50.92361 | -1.37236 | 588 ft | 130 kts | 25° |
| 2026-04-29 10:00 | 50.93148 | -1.36780 | 346 ft | 111 kts | 28° |
| 2026-04-29 10:00 | 50.93847 | -1.36369 | 193 ft | 109 kts | 23° |
| 2026-04-29 10:00 | 50.94559 | -1.35943 | 99 ft | 110 kts | 23° |
| 2026-04-29 10:00 | 50.95251 | -1.35550 | 44 ft | 87 kts | 19° |
| 2026-04-29 10:01 | 50.95482 | -1.35428 | 50 ft | 8 kts | 19° |
| 2026-04-29 10:01 | 50.95584 | -1.35369 | 58 ft | 12 kts | 20° |
| 2026-04-29 10:01 | 50.95646 | -1.35324 | 56 ft | 11 kts | 25° |
| 2026-04-29 10:01 | 50.95693 | -1.35313 | 58 ft | 2 kts | 280° |
| 2026-04-29 10:02 | 50.95686 | -1.35320 | 58 ft | 0 kts | 218° |
| 2026-04-29 10:02 | 50.95666 | -1.35330 | 56 ft | 6 kts | 198° |
| 2026-04-29 10:02 | 50.95611 | -1.35357 | 56 ft | 11 kts | 197° |
| 2026-04-29 10:02 | 50.95518 | -1.35408 | 55 ft | 18 kts | 200° |
| 2026-04-29 10:03 | 50.95392 | -1.35474 | 51 ft | 19 kts | 199° |
| 2026-04-29 10:03 | 50.95264 | -1.35543 | 46 ft | 20 kts | 199° |
| 2026-04-29 10:03 | 50.95141 | -1.35613 | 46 ft | 18 kts | 199° |
| 2026-04-29 10:03 | 50.95045 | -1.35673 | 45 ft | 14 kts | 211° |
| 2026-04-29 10:04 | 50.95037 | -1.35802 | 47 ft | 11 kts | 288° |
| 2026-04-29 10:04 | 50.95048 | -1.35855 | 46 ft | 0 kts | 287° |
| 2026-04-29 10:06 | 50.95048 | -1.35856 | 46 ft | 0 kts | 287° |
| 2026-04-29 10:06 | 50.95050 | -1.35876 | 49 ft | 4 kts | 278° |
| 2026-04-29 10:07 | 50.95024 | -1.35935 | 49 ft | 10 kts | 207° |
| 2026-04-29 10:07 | 50.94950 | -1.35977 | 48 ft | 11 kts | 200° |
| 2026-04-29 10:07 | 50.94905 | -1.36024 | 48 ft | 7 kts | 240° |
| 2026-04-29 10:07 | 50.94909 | -1.36110 | 47 ft | 8 kts | 287° |
| 2026-04-29 10:08 | 50.94933 | -1.36123 | 47 ft | 6 kts | 7° |
| 2026-04-29 10:08 | 50.94957 | -1.36113 | 46 ft | 2 kts | 17° |
| 2026-04-29 10:08 | 50.94967 | -1.36108 | 47 ft | 0 kts | 18° |